Time;durP1;ratioP1;P1;durP2;ratioP2;P2;SDS_P1;SDS_P2;PMS_P1;PMS_P2;Temp;Humidity;BMP_temperature;BMP_pressure;BME280_temperature;BME280_humidity;BME280_pressure;Samples;Min_cycle;Max_cycle;Signal;HPM_P1;HPM_P2
2023/05/20 21:12:59;;;;;;;;;13.50;11.75;;;;;19.21;49.95;101264.50;5130577;27;45432;-52
2023/05/20 21:15:25;;;;;;;;;14.00;12.75;;;;;19.38;49.51;101267.78;5113425;27;45365;-56
2023/05/20 21:17:51;;;;;;;;;15.50;12.75;;;;;19.31;49.12;101248.84;5113119;27;45455;-61
2023/05/20 21:20:17;;;;;;;;;18.67;14.00;;;;;19.44;49.29;101267.88;5113589;27;45386;-59
2023/05/20 21:22:43;;;;;;;;;12.75;12.75;;;;;19.45;49.30;101264.13;5113146;27;46182;-42
2023/05/20 21:25:09;;;;;;;;;12.50;10.25;;;;;19.49;49.00;101269.16;5113197;27;45412;-59
2023/05/20 21:27:34;;;;;;;;;16.50;11.75;;;;;19.47;48.90;101265.81;5113452;27;45726;-61
2023/05/20 21:29:59;;;;;;;;;15.67;13.33;;;;;19.50;49.16;101268.13;5113146;27;45328;-56
2023/05/20 21:32:25;;;;;;;;;13.33;13.33;;;;;19.48;48.97;101265.63;5113075;27;45422;-58
2023/05/20 21:34:50;;;;;;;;;17.33;16.00;;;;;19.47;49.38;101263.97;5111856;27;45445;-63
2023/05/20 21:37:15;;;;;;;;;9.67;9.67;;;;;19.45;48.92;101266.84;5113227;27;45834;-61
2023/05/20 21:39:41;;;;;;;;;13.25;11.00;;;;;19.39;49.00;101256.81;5113140;27;45324;-54
2023/05/20 21:42:06;;;;;;;;;13.75;11.00;;;;;19.41;49.15;101253.94;5112693;27;45657;-63
2023/05/20 21:44:32;;;;;;;;;12.25;12.25;;;;;19.39;49.30;101254.13;5112854;27;45493;-50
2023/05/20 21:46:57;;;;;;;;;15.00;14.33;;;;;19.27;49.50;101236.78;5113042;27;45418;-62
2023/05/20 21:49:23;;;;;;;;;13.75;11.50;;;;;19.35;49.56;101252.84;5112939;27;45286;-44
2023/05/20 21:51:48;;;;;;;;;11.67;11.00;;;;;19.35;49.43;101246.63;5112873;27;45563;-60
2023/05/20 21:54:13;;;;;;;;;14.33;14.00;;;;;19.34;49.33;101243.09;5112723;27;45380;-55
2023/05/20 21:56:39;;;;;;;;;11.00;11.00;;;;;19.32;49.47;101239.72;5113151;27;45361;-59
2023/05/20 21:59:04;;;;;;;;;14.00;12.67;;;;;19.35;49.39;101252.00;5112997;27;45266;-44
2023/05/20 22:01:29;;;;;;;;;13.00;13.00;;;;;19.36;49.23;101243.72;5112402;27;46010;-42
2023/05/20 22:03:55;;;;;;;;;15.33;15.00;;;;;19.34;49.15;101236.81;5112633;27;45245;-47
2023/05/20 22:06:21;;;;;;;;;11.33;11.33;;;;;19.36;49.28;101245.59;5112496;27;45419;-42
2023/05/20 22:08:47;;;;;;;;;16.00;14.00;;;;;19.33;49.30;101244.09;5112522;27;45362;-55
2023/05/20 22:11:14;;;;;;;;;12.33;12.00;;;;;19.29;49.53;101242.81;5111990;27;47169;-49
2023/05/20 22:13:40;;;;;;;;;8.33;7.67;;;;;19.28;49.82;101245.69;5100166;27;45371;-42
2023/05/20 22:16:07;;;;;;;;;16.67;14.00;;;;;19.25;49.68;101251.47;5098733;27;45378;-42
2023/05/20 22:18:32;;;;;;;;;16.67;16.67;;;;;19.10;50.32;101227.25;5098660;27;45465;-46
2023/05/20 22:20:59;;;;;;;;;15.00;15.00;;;;;19.15;50.12;101249.94;5098346;27;46115;-42
2023/05/20 22:23:25;;;;;;;;;11.33;11.33;;;;;19.09;50.32;101250.69;5098437;27;45403;-40
2023/05/20 22:25:51;;;;;;;;;16.00;15.00;;;;;19.04;50.75;101255.81;5098510;27;45343;-40
2023/05/20 22:28:16;;;;;;;;;15.33;13.67;;;;;18.90;50.18;101243.22;5098475;27;45450;-42
2023/05/20 22:30:42;;;;;;;;;16.00;9.67;;;;;18.87;50.17;101244.41;5098591;27;45400;-51
2023/05/20 22:33:07;;;;;;;;;12.67;12.67;;;;;18.86;50.46;101253.53;5098192;27;45308;-50
2023/05/20 22:35:33;;;;;;;;;12.67;11.33;;;;;18.70;50.40;101251.03;5098377;27;45829;-44
2023/05/20 22:37:59;;;;;;;;;16.00;13.00;;;;;18.74;51.07;101255.03;5098266;27;45287;-40
2023/05/20 22:40:25;;;;;;;;;16.00;13.00;;;;;18.68;50.64;101253.06;5098098;27;46257;-41
2023/05/20 22:42:50;;;;;;;;;13.00;13.00;;;;;18.64;51.25;101249.91;5098200;27;45423;-41
2023/05/20 22:45:16;;;;;;;;;16.00;13.00;;;;;18.60;51.58;101255.84;5098152;27;45475;-39
2023/05/20 22:47:41;;;;;;;;;12.00;12.00;;;;;18.57;51.38;101250.84;5098458;27;45421;-43
2023/05/20 22:50:07;;;;;;;;;17.67;15.00;;;;;18.50;51.89;101248.06;5097919;27;46468;-48
2023/05/20 22:52:35;;;;;;;;;15.67;13.00;;;;;18.46;51.06;101244.06;5098338;27;45498;-53
2023/05/20 22:55:01;;;;;;;;;18.00;13.67;;;;;18.43;52.08;101253.34;5098176;27;45190;-46
2023/05/20 22:57:27;;;;;;;;;16.00;14.00;;;;;18.40;51.94;101239.41;5098337;27;45544;-42
2023/05/20 22:59:54;;;;;;;;;12.33;11.33;;;;;18.35;52.25;101239.13;5098319;27;46251;-56
2023/05/20 23:02:19;;;;;;;;;16.00;13.00;;;;;18.33;52.39;101247.41;5097406;27;45475;-42
2023/05/20 23:04:45;;;;;;;;;16.33;14.67;;;;;18.28;52.39;101248.97;5098033;27;45364;-44
2023/05/20 23:07:13;;;;;;;;;11.00;9.67;;;;;18.25;52.56;101252.06;5098070;27;45275;-41
2023/05/20 23:09:40;;;;;;;;;15.67;13.67;;;;;18.21;52.78;101251.59;5097412;27;46979;-46
2023/05/20 23:12:06;;;;;;;;;13.00;10.67;;;;;18.17;52.67;101247.59;5097176;27;45445;-55
2023/05/20 23:14:31;;;;;;;;;11.67;11.00;;;;;18.17;52.74;101250.28;5097537;27;45380;-42
2023/05/20 23:16:56;;;;;;;;;15.00;15.00;;;;;18.15;52.69;101252.31;5098051;27;45310;-51
2023/05/20 23:19:22;;;;;;;;;13.67;13.67;;;;;18.12;52.96;101247.31;5097316;27;47286;-44
2023/05/20 23:21:47;;;;;;;;;15.33;13.33;;;;;18.08;53.03;101237.94;5097234;27;46702;-48
2023/05/20 23:24:13;;;;;;;;;17.67;14.67;;;;;18.06;53.21;101235.41;5096828;27;45223;-50
2023/05/20 23:26:39;;;;;;;;;14.00;13.00;;;;;18.04;53.13;101234.75;5098158;27;45324;-49
2023/05/20 23:29:05;;;;;;;;;17.67;17.67;;;;;18.03;53.31;101246.53;5097338;27;46186;-50
2023/05/20 23:31:31;;;;;;;;;18.67;15.33;;;;;18.01;53.56;101247.75;5097442;27;45508;-42
2023/05/20 23:33:57;;;;;;;;;13.00;13.00;;;;;17.96;53.41;101245.59;5097445;27;45452;-42
2023/05/20 23:36:24;;;;;;;;;19.00;14.33;;;;;17.94;53.15;101245.78;5097533;27;45315;-41
2023/05/20 23:38:50;;;;;;;;;14.67;13.00;;;;;17.94;53.83;101248.47;5097334;27;46138;-42
2023/05/20 23:41:15;;;;;;;;;13.00;13.00;;;;;17.93;53.88;101244.09;5096956;27;45325;-42
2023/05/20 23:43:41;;;;;;;;;18.00;17.33;;;;;17.93;53.85;101240.56;5097142;27;45319;-41
2023/05/20 23:46:08;;;;;;;;;14.67;14.33;;;;;17.89;53.98;101244.66;5097119;27;45262;-42
2023/05/20 23:48:33;;;;;;;;;13.00;13.00;;;;;17.91;53.98;101242.63;5096960;27;46295;-45
2023/05/20 23:50:58;;;;;;;;;18.67;16.33;;;;;17.87;54.13;101235.94;5097230;27;45684;-53
2023/05/20 23:53:24;;;;;;;;;15.00;13.33;;;;;17.81;54.11;101239.34;5097127;27;45263;-48
2023/05/20 23:55:49;;;;;;;;;17.67;14.00;;;;;17.78;53.88;101234.31;5097136;27;45434;-51
2023/05/20 23:58:15;;;;;;;;;23.00;18.00;;;;;17.75;54.22;101229.31;5096632;27;46987;-50
